Time;durP1;ratioP1;P1;durP2;ratioP2;P2;SDS_P1;SDS_P2;PMS_P1;PMS_P2;Temp;Humidity;BMP_temperature;BMP_pressure;BME280_temperature;BME280_humidity;BME280_pressure;Samples;Min_cycle;Max_cycle;Signal;HPM_P1;HPM_P2
2021/12/19 00:04:32;;;;;;;18.83;14.17;;;6.60;1.00;;;;;;5072386;28;20251;-75
2021/12/19 00:09:43;;;;;;;16.20;12.57;;;6.90;1.00;;;;;;5054376;28;20214;-75
2021/12/19 00:12:10;;;;;;;19.40;14.03;;;6.70;1.00;;;;;;5054879;28;20295;-74
2021/12/19 00:14:39;;;;;;;18.57;15.30;;;6.60;1.00;;;;;;5053446;28;20202;-76
2021/12/19 00:17:06;;;;;;;19.23;12.37;;;6.70;1.00;;;;;;5062854;28;20194;-74
2021/12/19 00:19:34;;;;;;;18.27;13.87;;;6.80;1.00;;;;;;5072901;28;20693;-74
2021/12/19 00:22:01;;;;;;;15.27;12.00;;;6.80;1.00;;;;;;5053567;28;20214;-75
2021/12/19 00:24:29;;;;;;;18.57;13.80;;;6.80;1.00;;;;;;5053371;28;20657;-75
2021/12/19 00:26:56;;;;;;;18.00;13.63;;;6.80;1.00;;;;;;5053529;28;20213;-76
2021/12/19 00:29:23;;;;;;;17.87;13.07;;;6.70;1.00;;;;;;5065559;28;20771;-74
2021/12/19 00:31:51;;;;;;;18.87;14.83;;;6.80;1.00;;;;;;5059577;28;20226;-75
2021/12/19 00:34:18;;;;;;;21.03;13.97;;;6.80;1.00;;;;;;5068213;28;20203;-76
2021/12/19 00:36:45;;;;;;;17.83;12.80;;;6.80;1.00;;;;;;5073099;28;20666;-71
2021/12/19 00:39:13;;;;;;;18.53;14.33;;;6.80;1.00;;;;;;5060533;28;20253;-75
2021/12/19 00:41:40;;;;;;;17.43;13.30;;;6.80;1.00;;;;;;5053266;28;20248;-75
2021/12/19 00:44:10;;;;;;;21.90;15.43;;;6.80;1.00;;;;;;5067762;28;20206;-75
2021/12/19 00:46:46;;;;;;;19.60;15.13;;;7.00;1.00;;;;;;5071265;28;20247;-76
2021/12/19 00:49:16;;;;;;;16.67;12.73;;;7.10;1.00;;;;;;5072950;28;20213;-74
2021/12/19 00:51:43;;;;;;;20.70;12.63;;;7.10;1.00;;;;;;5055864;28;20230;-76
2021/12/19 00:54:10;;;;;;;16.67;12.97;;;7.10;1.00;;;;;;5053269;28;20207;-75
2021/12/19 00:56:42;;;;;;;14.50;12.40;;;7.00;1.00;;;;;;5055336;28;20755;-79
2021/12/19 00:59:09;;;;;;;17.83;12.03;;;7.00;1.00;;;;;;5056771;28;20210;-78
2021/12/19 01:01:37;;;;;;;18.20;12.97;;;6.90;1.00;;;;;;5055140;28;20213;-76
2021/12/19 01:04:05;;;;;;;15.67;12.70;;;6.80;1.00;;;;;;5065641;28;20628;-77
2021/12/19 01:06:34;;;;;;;14.63;12.43;;;6.80;1.00;;;;;;5061729;28;20252;-75
2021/12/19 01:09:01;;;;;;;16.63;12.87;;;6.90;1.00;;;;;;5062849;28;20256;-75
2021/12/19 01:11:28;;;;;;;17.50;14.30;;;6.90;1.00;;;;;;5069629;28;20287;-76
2021/12/19 01:13:56;;;;;;;17.40;13.97;;;6.90;1.00;;;;;;5071380;28;20230;-74
2021/12/19 01:16:23;;;;;;;19.53;13.43;;;6.80;1.00;;;;;;5070992;28;20202;-72
2021/12/19 01:18:50;;;;;;;16.03;12.03;;;6.80;1.00;;;;;;5060194;28;20203;-74
2021/12/19 01:21:18;;;;;;;23.90;14.40;;;7.00;1.00;;;;;;5052379;28;20236;-75
2021/12/19 01:23:47;;;;;;;15.43;11.83;;;7.10;1.00;;;;;;5051919;28;20628;-75
2021/12/19 01:26:14;;;;;;;17.33;13.57;;;6.90;1.00;;;;;;5052843;28;20261;-74
2021/12/19 01:28:42;;;;;;;17.00;13.00;;;7.00;1.00;;;;;;5063650;28;20206;-75
2021/12/19 01:31:09;;;;;;;22.90;14.63;;;6.90;1.00;;;;;;5056480;28;20749;-77
2021/12/19 01:33:36;;;;;;;21.10;14.37;;;6.90;1.00;;;;;;5068145;28;20202;-77
2021/12/19 01:36:04;;;;;;;18.27;12.80;;;6.80;1.00;;;;;;5052480;28;20202;-77
2021/12/19 01:38:31;;;;;;;23.00;14.47;;;6.90;1.00;;;;;;5051818;28;20207;-76
2021/12/19 01:40:59;;;;;;;15.63;13.33;;;6.80;1.00;;;;;;5061159;28;20202;-74
2021/12/19 01:43:27;;;;;;;17.40;14.77;;;6.60;1.00;;;;;;5071030;28;20202;-76
2021/12/19 01:45:55;;;;;;;14.87;12.57;;;6.50;1.00;;;;;;5071812;28;20569;-74
2021/12/19 01:48:23;;;;;;;16.87;13.13;;;6.40;1.00;;;;;;5070679;28;20212;-75
2021/12/19 01:50:52;;;;;;;18.60;13.03;;;6.50;1.00;;;;;;5072141;28;20198;-76
2021/12/19 01:53:19;;;;;;;19.00;13.00;;;6.60;1.00;;;;;;5071127;28;20277;-75
2021/12/19 01:55:48;;;;;;;20.50;13.73;;;6.70;1.00;;;;;;5071508;28;20279;-75
2021/12/19 01:58:17;;;;;;;18.33;14.17;;;6.70;1.00;;;;;;5064063;28;20268;-77
2021/12/19 02:00:47;;;;;;;23.33;14.00;;;6.70;1.00;;;;;;5051961;28;20666;-74
2021/12/19 02:03:15;;;;;;;20.50;14.53;;;6.70;1.00;;;;;;5066216;28;20610;-74
2021/12/19 02:05:43;;;;;;;21.50;15.00;;;6.60;1.00;;;;;;5071629;28;20202;-75
2021/12/19 02:08:11;;;;;;;19.30;15.17;;;6.70;1.00;;;;;;5064783;28;20199;-75
2021/12/19 02:10:40;;;;;;;23.83;18.17;;;6.70;1.00;;;;;;5060057;28;20641;-75
2021/12/19 02:13:09;;;;;;;21.73;16.17;;;6.60;1.00;;;;;;5052083;28;20234;-76
2021/12/19 02:15:39;;;;;;;20.00;15.43;;;6.50;1.00;;;;;;5051183;28;20213;-73
2021/12/19 02:18:12;;;;;;;19.70;15.47;;;6.50;1.00;;;;;;5064582;28;20229;-72
2021/12/19 02:20:43;;;;;;;20.03;14.33;;;6.50;1.00;;;;;;5070902;28;20259;-74
2021/12/19 02:23:10;;;;;;;23.40;14.83;;;6.50;1.00;;;;;;5071710;28;20198;-75
2021/12/19 02:25:38;;;;;;;17.40;13.97;;;6.60;1.00;;;;;;5053073;28;20740;-75
2021/12/19 02:28:05;;;;;;;20.30;13.93;;;6.60;1.00;;;;;;5068305;28;20202;-74
2021/12/19 02:30:33;;;;;;;19.60;14.67;;;6.60;1.00;;;;;;5068867;28;20202;-75
2021/12/19 02:33:00;;;;;;;29.53;15.30;;;6.40;1.00;;;;;;5057876;28;20245;-75
2021/12/19 02:35:31;;;;;;;18.60;13.43;;;6.20;1.00;;;;;;5050665;28;20203;-74
2021/12/19 02:49:06;;;;;;;18.57;14.67;;;6.20;1.00;;;;;;5067132;28;20201;-75
2021/12/19 02:51:35;;;;;;;22.73;13.67;;;6.10;1.00;;;;;;5070241;28;20202;-76
2021/12/19 02:54:05;;;;;;;19.07;13.40;;;6.00;1.00;;;;;;5068191;28;20202;-74
2021/12/19 02:56:32;;;;;;;19.37;13.33;;;5.90;1.00;;;;;;5069299;28;20202;-77
2021/12/19 02:58:59;;;;;;;19.03;13.83;;;6.00;1.00;;;;;;5057841;28;20207;-76
2021/12/19 03:01:27;;;;;;;20.93;16.10;;;5.90;1.00;;;;;;5067899;28;20736;-75
2021/12/19 03:03:54;;;;;;;20.30;13.73;;;5.70;1.00;;;;;;5050667;28;20195;-76
2021/12/19 03:06:21;;;;;;;18.80;13.43;;;5.70;1.00;;;;;;5056507;28;20279;-78
2021/12/19 03:08:51;;;;;;;20.70;13.80;;;5.60;1.00;;;;;;5066460;28;20195;-75
2021/12/19 03:19:39;;;;;;;21.77;15.33;;;5.70;1.00;;;;;;5057661;28;20245;-77
2021/12/19 03:22:06;;;;;;;21.03;15.00;;;5.50;1.00;;;;;;5066434;28;20201;-76
2021/12/19 03:24:33;;;;;;;29.63;17.77;;;5.50;1.00;;;;;;5065876;28;20211;-77
2021/12/19 03:27:02;;;;;;;25.27;19.00;;;5.40;1.00;;;;;;5050884;28;20203;-77
2021/12/19 03:29:29;;;;;;;23.80;17.53;;;5.20;1.00;;;;;;5063804;28;20267;-76
2021/12/19 03:31:56;;;;;;;28.00;18.80;;;5.00;1.00;;;;;;5056625;28;20226;-76
2021/12/19 03:34:23;;;;;;;27.93;19.00;;;4.90;1.00;;;;;;5058458;28;20199;-76
2021/12/19 03:36:51;;;;;;;23.23;17.37;;;4.80;1.00;;;;;;5050630;28;20199;-75
2021/12/19 03:39:32;;;;;;;19.97;15.03;;;4.80;1.00;;;;;;5050205;28;20207;-75
2021/12/19 03:42:01;;;;;;;20.50;15.70;;;4.80;1.00;;;;;;5050441;28;20249;-74
2021/12/19 03:44:28;;;;;;;26.90;18.03;;;4.70;1.00;;;;;;5050306;28;20203;-74
2021/12/19 03:46:55;;;;;;;22.63;17.80;;;4.80;1.00;;;;;;5050090;28;20736;-75
2021/12/19 03:49:23;;;;;;;24.07;16.63;;;4.80;1.00;;;;;;5050972;28;20240;-77
2021/12/19 03:51:50;;;;;;;23.90;17.80;;;4.50;1.00;;;;;;5050428;28;20642;-80
2021/12/19 03:54:17;;;;;;;26.70;18.40;;;4.50;1.00;;;;;;5053489;28;20252;-77
2021/12/19 03:56:44;;;;;;;23.40;17.50;;;4.40;1.00;;;;;;5070609;28;20731;-72
2021/12/19 03:59:13;;;;;;;25.60;17.47;;;4.50;1.00;;;;;;5066644;28;20634;-79
2021/12/19 04:01:42;;;;;;;27.03;18.60;;;4.40;1.00;;;;;;5054118;28;20198;-80
2021/12/19 04:04:09;;;;;;;26.03;18.87;;;4.40;1.00;;;;;;5065421;28;20249;-78
2021/12/19 04:06:36;;;;;;;23.80;17.83;;;4.30;1.00;;;;;;5052859;28;20210;-79
2021/12/19 04:09:04;;;;;;;22.43;17.63;;;4.40;1.00;;;;;;5067862;28;20677;-79
2021/12/19 04:11:31;;;;;;;25.37;18.07;;;4.30;1.00;;;;;;5050177;28;20268;-76
2021/12/19 04:13:58;;;;;;;23.17;18.77;;;4.10;1.00;;;;;;5052705;28;20223;-75
2021/12/19 04:16:26;;;;;;;24.73;17.30;;;4.10;1.00;;;;;;5054413;28;20289;-78
2021/12/19 04:18:53;;;;;;;26.53;18.30;;;4.10;1.00;;;;;;5050682;28;20215;-76
2021/12/19 04:21:20;;;;;;;26.20;17.70;;;4.20;1.00;;;;;;5068567;28;20203;-76
2021/12/19 04:23:47;;;;;;;25.80;16.50;;;4.20;1.00;;;;;;5054005;28;20210;-78
2021/12/19 04:26:14;;;;;;;23.70;16.83;;;4.10;1.00;;;;;;5073561;28;20267;-71
2021/12/19 04:28:42;;;;;;;27.20;18.23;;;4.00;1.00;;;;;;5063670;28;20202;-76
2021/12/19 04:31:09;;;;;;;23.07;17.33;;;3.90;1.00;;;;;;5062944;28;20198;-81
2021/12/19 04:33:40;;;;;;;28.23;17.90;;;3.90;1.00;;;;;;5069302;28;20234;-76
2021/12/19 04:36:09;;;;;;;24.13;16.87;;;3.90;1.00;;;;;;5070711;28;20229;-74
2021/12/19 04:53:01;;;;;;;28.33;18.50;;;4.00;1.00;;;;;;5071994;28;20237;-80
2021/12/19 04:55:46;;;;;;;21.83;16.37;;;4.00;1.00;;;;;;5061425;28;20293;-79
2021/12/19 04:58:23;;;;;;;22.07;16.47;;;3.90;1.00;;;;;;5055186;28;20206;-75
2021/12/19 05:01:01;;;;;;;23.73;15.83;;;3.90;1.00;;;;;;5053171;28;20256;-77
2021/12/19 05:03:40;;;;;;;28.23;17.80;;;3.90;1.00;;;;;;5052418;28;20663;-78
2021/12/19 05:06:15;;;;;;;22.00;16.60;;;3.90;1.00;;;;;;5053541;28;20206;-76
2021/12/19 05:14:15;;;;;;;28.33;18.00;;;3.70;1.00;;;;;;5053187;28;20287;-80
2021/12/19 05:16:45;;;;;;;23.60;17.53;;;3.80;1.00;;;;;;5053287;28;20195;-77
2021/12/19 05:19:22;;;;;;;24.73;16.80;;;3.70;1.00;;;;;;5052264;28;20214;-77
2021/12/19 05:21:55;;;;;;;22.47;17.43;;;3.60;1.00;;;;;;5052697;28;20654;-78
2021/12/19 05:24:44;;;;;;;23.70;16.47;;;3.70;1.00;;;;;;5069058;28;20202;-79
2021/12/19 05:27:12;;;;;;;32.50;19.70;;;3.80;1.00;;;;;;5057837;28;20221;-83
2021/12/19 05:29:40;;;;;;;22.70;16.93;;;3.80;1.00;;;;;;5054307;28;20203;-82
2021/12/19 05:32:09;;;;;;;26.90;18.40;;;3.70;1.00;;;;;;5052457;28;20619;-84
2021/12/19 05:34:36;;;;;;;22.87;17.37;;;3.70;1.00;;;;;;5057455;28;20206;-83
2021/12/19 05:45:20;;;;;;;25.37;17.70;;;3.40;1.00;;;;;;5070097;28;20692;-79
2021/12/19 05:47:49;;;;;;;21.73;15.40;;;3.50;1.00;;;;;;5054869;28;20301;-82
2021/12/19 05:50:18;;;;;;;21.17;16.07;;;3.40;1.00;;;;;;5070585;28;20673;-72
2021/12/19 05:52:48;;;;;;;25.83;17.80;;;3.40;1.00;;;;;;5072559;28;20230;-80
2021/12/19 05:55:16;;;;;;;22.13;16.27;;;3.40;1.00;;;;;;5056450;28;20252;-80
2021/12/19 05:57:44;;;;;;;26.60;17.47;;;3.40;1.00;;;;;;5070419;28;20686;-81
2021/12/19 06:00:14;;;;;;;21.83;16.47;;;3.20;1.00;;;;;;5056768;28;20267;-76
2021/12/19 06:02:43;;;;;;;21.53;15.40;;;3.30;1.00;;;;;;5070072;28;20213;-79
2021/12/19 06:05:11;;;;;;;26.57;17.23;;;3.30;1.00;;;;;;5069912;28;20198;-79
2021/12/19 06:07:38;;;;;;;23.60;16.97;;;3.30;1.00;;;;;;5071492;28;20203;-79
2021/12/19 06:10:07;;;;;;;22.53;15.83;;;3.30;1.00;;;;;;5059010;28;20260;-79
2021/12/19 06:12:34;;;;;;;23.53;17.17;;;3.20;1.00;;;;;;5051866;28;20222;-80
2021/12/19 06:15:01;;;;;;;21.37;15.80;;;3.20;1.00;;;;;;5052454;28;20230;-76
2021/12/19 06:17:28;;;;;;;22.50;15.50;;;3.30;1.00;;;;;;5051032;28;20213;-74
2021/12/19 06:19:55;;;;;;;23.03;17.63;;;3.30;1.00;;;;;;5067824;28;20209;-73
2021/12/19 06:22:22;;;;;;;19.97;14.43;;;3.50;1.00;;;;;;5068839;28;20202;-74
2021/12/19 06:24:49;;;;;;;21.43;15.30;;;3.40;1.00;;;;;;5064153;28;20608;-74
2021/12/19 06:27:17;;;;;;;20.30;15.13;;;3.30;1.00;;;;;;5050967;28;20206;-70
2021/12/19 06:29:44;;;;;;;21.80;15.40;;;3.20;1.00;;;;;;5052416;28;20202;-71
2021/12/19 06:32:11;;;;;;;19.53;13.23;;;3.20;1.00;;;;;;5051430;28;20736;-76
2021/12/19 06:34:38;;;;;;;21.60;15.00;;;3.00;1.00;;;;;;5050475;28;20583;-75
2021/12/19 06:37:09;;;;;;;21.47;15.17;;;3.10;1.00;;;;;;5064954;28;20670;-76
2021/12/19 06:39:37;;;;;;;20.20;14.93;;;3.10;1.00;;;;;;5069793;28;20637;-76
2021/12/19 06:42:05;;;;;;;21.77;15.33;;;3.10;1.00;;;;;;5065838;28;20764;-75
2021/12/19 06:44:34;;;;;;;21.87;14.97;;;3.10;1.00;;;;;;5051303;28;20203;-74
2021/12/19 06:47:01;;;;;;;22.30;16.50;;;3.10;1.00;;;;;;5051164;28;20253;-75
2021/12/19 06:49:28;;;;;;;19.23;15.30;;;3.10;1.00;;;;;;5058055;28;20256;-75
2021/12/19 06:51:56;;;;;;;21.30;13.97;;;3.10;1.00;;;;;;5058805;28;20255;-74
2021/12/19 06:54:23;;;;;;;21.47;16.20;;;3.10;1.00;;;;;;5066919;28;20278;-74
2021/12/19 06:56:50;;;;;;;17.10;13.23;;;3.10;1.00;;;;;;5070014;28;20209;-74
2021/12/19 06:59:17;;;;;;;25.20;16.63;;;3.00;1.00;;;;;;5056216;28;20214;-72
2021/12/19 07:01:47;;;;;;;21.03;15.07;;;3.00;1.00;;;;;;5067369;28;20206;-72
2021/12/19 07:04:14;;;;;;;23.63;16.07;;;3.00;1.00;;;;;;5067809;28;20206;-72
2021/12/19 07:06:41;;;;;;;22.00;15.97;;;2.90;1.00;;;;;;5070945;28;20202;-70
2021/12/19 07:09:08;;;;;;;24.03;16.50;;;2.90;1.00;;;;;;5068403;28;20202;-73
2021/12/19 07:11:35;;;;;;;21.77;14.80;;;2.90;1.00;;;;;;5057185;28;20247;-72
2021/12/19 07:14:02;;;;;;;22.50;16.10;;;2.90;1.00;;;;;;5057342;28;20311;-72
2021/12/19 07:16:29;;;;;;;21.93;16.23;;;2.90;1.00;;;;;;5063749;28;20206;-72
2021/12/19 07:18:57;;;;;;;22.00;16.73;;;3.00;1.00;;;;;;5063019;28;20259;-72
2021/12/19 07:21:25;;;;;;;24.63;14.97;;;3.00;1.00;;;;;;5050257;28;20211;-72
2021/12/19 07:23:52;;;;;;;21.23;15.83;;;2.90;1.00;;;;;;5067145;28;20206;-73
2021/12/19 07:26:19;;;;;;;27.23;18.70;;;3.00;1.00;;;;;;5069236;28;20247;-72
2021/12/19 07:28:48;;;;;;;25.83;18.67;;;2.90;1.00;;;;;;5057415;28;20203;-72
2021/12/19 07:31:17;;;;;;;26.90;18.60;;;3.00;1.00;;;;;;5063411;28;20226;-69
2021/12/19 07:33:45;;;;;;;24.63;17.43;;;3.00;1.00;;;;;;5060524;28;20230;-71
2021/12/19 07:36:14;;;;;;;22.03;16.10;;;3.00;1.00;;;;;;5052511;28;20776;-73
2021/12/19 07:38:51;;;;;;;27.37;18.47;;;3.00;1.00;;;;;;5068232;28;20206;-71
2021/12/19 07:41:18;;;;;;;28.77;17.60;;;3.00;1.00;;;;;;5070059;28;20259;-72
2021/12/19 07:43:45;;;;;;;24.83;19.10;;;3.00;1.00;;;;;;5067135;28;20260;-72
2021/12/19 07:46:13;;;;;;;19.67;16.17;;;3.10;1.00;;;;;;5050955;28;20558;-68
2021/12/19 07:48:40;;;;;;;25.83;18.17;;;3.20;1.00;;;;;;5050593;28;20207;-68
2021/12/19 07:51:07;;;;;;;25.00;17.33;;;3.10;1.00;;;;;;5053527;28;20203;-68
2021/12/19 07:53:35;;;;;;;26.87;18.23;;;3.20;1.00;;;;;;5057230;28;20222;-68
2021/12/19 07:56:02;;;;;;;24.87;16.07;;;3.20;1.00;;;;;;5054201;28;20206;-68
2021/12/19 07:58:29;;;;;;;25.83;17.77;;;3.20;1.00;;;;;;5053665;28;20206;-73
2021/12/19 08:00:56;;;;;;;27.37;17.40;;;3.30;1.00;;;;;;5057087;28;20252;-69
2021/12/19 08:03:23;;;;;;;21.93;16.90;;;3.30;1.00;;;;;;5067824;28;20206;-69
2021/12/19 08:05:50;;;;;;;21.77;15.77;;;3.40;1.00;;;;;;5068933;28;20198;-70
2021/12/19 08:08:22;;;;;;;28.27;18.40;;;3.50;1.00;;;;;;5065861;28;20203;-70
2021/12/19 08:13:34;;;;;;;22.13;17.13;;;3.80;1.00;;;;;;5064365;28;20383;-73
2021/12/19 08:16:01;;;;;;;21.30;15.83;;;3.80;1.00;;;;;;5072850;28;20264;-68
2021/12/19 08:18:28;;;;;;;22.63;16.30;;;4.00;1.00;;;;;;5069470;28;20211;-72
2021/12/19 08:20:55;;;;;;;22.83;16.53;;;4.30;1.00;;;;;;5063834;28;20575;-72
2021/12/19 08:23:22;;;;;;;25.47;18.43;;;4.40;1.00;;;;;;5069656;28;20256;-72
2021/12/19 08:25:51;;;;;;;25.13;17.70;;;4.50;1.00;;;;;;5073631;28;20205;-72
2021/12/19 08:28:18;;;;;;;22.17;16.73;;;4.90;1.00;;;;;;5068954;28;20210;-75
2021/12/19 08:30:45;;;;;;;21.77;16.77;;;5.30;1.00;;;;;;5069433;28;20733;-72
2021/12/19 08:33:12;;;;;;;21.80;15.63;;;5.80;1.00;;;;;;5067663;28;20202;-73
2021/12/19 08:35:39;;;;;;;23.07;16.57;;;6.40;1.00;;;;;;5064388;28;20268;-71
2021/12/19 08:38:06;;;;;;;17.07;13.77;;;6.90;1.00;;;;;;5065136;28;20206;-71
2021/12/19 08:40:33;;;;;;;19.07;15.17;;;7.00;1.00;;;;;;5069184;28;20199;-74
2021/12/19 08:43:01;;;;;;;26.33;17.33;;;8.10;1.00;;;;;;5072683;28;20205;-73
2021/12/19 08:45:28;;;;;;;27.77;18.90;;;7.90;1.00;;;;;;5072490;28;20579;-74
2021/12/19 08:47:55;;;;;;;17.57;13.27;;;7.40;1.00;;;;;;5071232;28;20259;-73
2021/12/19 08:50:23;;;;;;;19.23;14.37;;;6.70;1.00;;;;;;5072296;28;20206;-74
2021/12/19 08:52:51;;;;;;;18.93;14.83;;;6.40;1.00;;;;;;5072822;28;20210;-73
2021/12/19 08:55:19;;;;;;;19.07;14.87;;;6.10;1.00;;;;;;5056162;28;20238;-73
2021/12/19 08:57:46;;;;;;;19.47;14.17;;;6.70;1.00;;;;;;5059251;28;20674;-72
2021/12/19 09:00:17;;;;;;;22.33;14.43;;;7.10;1.00;;;;;;5065008;28;20214;-72
2021/12/19 09:02:46;;;;;;;18.43;13.93;;;8.40;1.00;;;;;;5071768;28;20697;-72
2021/12/19 09:05:13;;;;;;;19.33;15.33;;;9.30;1.00;;;;;;5071893;28;20609;-73
2021/12/19 09:07:41;;;;;;;21.43;15.00;;;9.00;1.00;;;;;;5060297;28;20739;-69
2021/12/19 09:10:09;;;;;;;20.77;16.50;;;8.80;1.00;;;;;;5068110;28;20213;-72
2021/12/19 09:12:36;;;;;;;19.97;16.53;;;8.90;1.00;;;;;;5066554;28;20949;-71
2021/12/19 09:15:03;;;;;;;26.07;20.93;;;9.10;1.00;;;;;;5072300;28;20649;-71
2021/12/19 09:17:32;;;;;;;21.13;17.50;;;9.10;1.00;;;;;;5066228;28;20214;-70
2021/12/19 09:19:59;;;;;;;16.93;15.03;;;8.80;1.00;;;;;;5058064;28;20198;-73
2021/12/19 09:22:26;;;;;;;18.30;14.70;;;9.60;1.00;;;;;;5069556;28;20239;-72
2021/12/19 09:24:53;;;;;;;16.70;14.13;;;10.70;1.00;;;;;;5069393;28;20267;-72
2021/12/19 09:27:20;;;;;;;14.40;12.10;;;11.70;1.00;;;;;;5071498;28;20210;-72
2021/12/19 09:29:47;;;;;;;14.53;12.30;;;12.40;1.00;;;;;;5069569;28;20202;-71
2021/12/19 09:32:14;;;;;;;16.40;13.13;;;12.90;1.00;;;;;;5060360;28;20223;-72
2021/12/19 09:34:42;;;;;;;14.50;13.00;;;13.40;1.00;;;;;;5066166;28;20229;-73
2021/12/19 09:37:09;;;;;;;14.63;12.97;;;13.60;1.00;;;;;;5072435;28;20217;-72
2021/12/19 09:39:36;;;;;;;18.20;16.23;;;14.10;1.00;;;;;;5065184;28;20271;-72
2021/12/19 09:42:09;;;;;;;14.80;12.73;;;14.20;1.00;;;;;;5071646;28;20261;-72
2021/12/19 09:44:37;;;;;;;27.95;21.42;;;14.10;1.00;;;;;;5071108;28;20661;-73
2021/12/19 09:47:07;;;;;;;17.05;14.40;;;13.90;1.00;;;;;;5071273;28;20236;-72
2021/12/19 09:49:34;;;;;;;14.27;12.43;;;14.30;1.00;;;;;;5070878;28;20206;-74
2021/12/19 09:52:07;;;;;;;16.17;12.30;;;15.30;1.00;;;;;;5071728;28;20673;-74
2021/12/19 09:54:36;;;;;;;14.75;13.18;;;15.40;1.00;;;;;;5070219;28;20236;-74
2021/12/19 09:57:04;;;;;;;15.35;13.75;;;15.60;99.90;;;;;;5071606;28;20214;-76
2021/12/19 09:59:31;;;;;;;15.90;14.20;;;16.40;1.00;;;;;;5070442;28;20260;-75
2021/12/19 10:01:58;;;;;;;15.25;13.68;;;16.60;99.90;;;;;;5070889;28;20709;-75
2021/12/19 10:04:30;;;;;;;18.55;13.50;;;17.10;99.90;;;;;;5070549;28;20206;-75
2021/12/19 10:07:08;;;;;;;20.95;17.98;;;18.00;99.90;;;;;;5071436;28;20252;-77
2021/12/19 10:09:37;;;;;;;16.88;15.23;;;17.30;99.90;;;;;;5070784;28;20585;-76
2021/12/19 10:12:37;;;;;;;19.80;14.25;;;17.20;99.90;;;;;;5071447;28;21069;-74
2021/12/19 10:15:07;;;;;;;15.43;13.90;;;18.40;99.90;;;;;;5070935;28;20894;-75
2021/12/19 10:17:36;;;;;;;15.68;14.07;;;19.00;99.90;;;;;;5065033;28;20209;-76
2021/12/19 10:20:06;;;;;;;16.42;14.65;;;19.00;99.90;;;;;;5057446;28;20206;-75
2021/12/19 10:22:36;;;;;;;108.50;78.15;;;19.00;99.90;;;;;;5063163;28;20207;-76
2021/12/19 10:25:18;;;;;;;25.63;21.40;;;19.10;99.90;;;;;;5062892;28;20210;-77
2021/12/19 10:27:47;;;;;;;16.40;14.63;;;18.80;99.90;;;;;;5070910;28;20207;-69
2021/12/19 10:30:21;;;;;;;16.55;14.85;;;19.40;99.90;;;;;;5059448;28;20244;-76
2021/12/19 10:32:53;;;;;;;19.42;15.85;;;19.70;99.90;;;;;;5070736;28;20267;-76
2021/12/19 10:35:23;;;;;;;18.45;16.50;;;19.40;99.90;;;;;;5058117;28;20306;-75
2021/12/19 10:37:51;;;;;;;17.25;15.45;;;16.30;99.90;;;;;;5070965;28;20217;-75
2021/12/19 10:40:19;;;;;;;14.90;13.35;;;17.00;99.90;;;;;;5070679;28;20214;-74
2021/12/19 10:42:55;;;;;;;16.35;14.00;;;17.80;99.90;;;;;;5070415;28;20214;-75
2021/12/19 10:45:32;;;;;;;17.65;14.93;;;14.50;99.90;;;;;;5053889;28;20704;-76
2021/12/19 10:48:15;;;;;;;16.35;14.65;;;11.70;99.90;;;;;;5070659;28;20212;-76
2021/12/19 10:50:44;;;;;;;18.63;15.80;;;9.80;1.00;;;;;;5057280;28;20665;-76
2021/12/19 10:53:13;;;;;;;25.67;18.33;;;9.10;1.00;;;;;;5070932;28;20214;-75
2021/12/19 10:55:42;;;;;;;20.87;17.33;;;9.10;1.00;;;;;;5057018;28;20345;-74
2021/12/19 10:58:38;;;;;;;19.13;15.63;;;9.00;1.00;;;;;;5070670;28;20263;-74
2021/12/19 11:01:10;;;;;;;18.00;14.03;;;9.10;1.00;;;;;;5035817;28;20756;-75
2021/12/19 11:03:44;;;;;;;21.13;14.73;;;9.20;1.00;;;;;;5069961;28;20665;-76
2021/12/19 11:06:21;;;;;;;18.70;15.43;;;9.20;1.00;;;;;;5072688;28;20223;-75
2021/12/19 11:08:50;;;;;;;21.10;15.07;;;9.40;1.00;;;;;;5070619;28;20210;-75
2021/12/19 11:11:41;;;;;;;21.70;16.90;;;9.60;1.00;;;;;;5070297;28;20210;-75
2021/12/19 11:14:09;;;;;;;20.57;16.47;;;9.70;1.00;;;;;;5070456;28;20315;-76
2021/12/19 11:16:36;;;;;;;19.87;16.07;;;9.70;1.00;;;;;;5065187;28;20207;-69
2021/12/19 11:19:04;;;;;;;16.80;14.10;;;9.80;1.00;;;;;;5069521;28;20251;-76
2021/12/19 11:21:34;;;;;;;21.60;15.53;;;9.80;1.00;;;;;;5070149;28;20210;-75
2021/12/19 11:24:04;;;;;;;20.87;15.97;;;9.90;1.00;;;;;;5067913;28;20648;-75
2021/12/19 11:26:32;;;;;;;17.50;12.97;;;9.90;1.00;;;;;;5059287;28;20731;-75
2021/12/19 11:29:00;;;;;;;13.13;10.63;;;10.20;1.00;;;;;;5069138;28;20343;-75
2021/12/19 11:31:30;;;;;;;11.03;7.90;;;10.50;1.00;;;;;;5072084;28;20243;-74
2021/12/19 11:34:15;;;;;;;13.27;11.87;;;10.80;1.00;;;;;;5074165;28;20198;-76
2021/12/19 11:36:46;;;;;;;8.87;7.73;;;11.10;1.00;;;;;;5072553;28;20210;-76
2021/12/19 11:39:17;;;;;;;8.73;7.43;;;11.10;1.00;;;;;;5063514;28;20210;-75
2021/12/19 11:42:03;;;;;;;11.73;8.40;;;11.40;1.00;;;;;;5074427;28;20214;-75
2021/12/19 11:44:35;;;;;;;11.67;7.03;;;11.50;1.00;;;;;;5072996;28;20222;-75
2021/12/19 11:47:09;;;;;;;10.50;6.60;;;11.60;1.00;;;;;;5071386;28;20206;-76
2021/12/19 11:49:36;;;;;;;7.37;5.27;;;11.70;1.00;;;;;;5066746;28;20264;-75
2021/12/19 11:52:26;;;;;;;12.17;6.67;;;11.80;1.00;;;;;;5073560;28;20204;-75
2021/12/19 11:55:22;;;;;;;5.10;4.00;;;12.00;1.00;;;;;;5064505;28;20255;-76
2021/12/19 11:58:17;;;;;;;7.07;4.93;;;12.10;1.00;;;;;;5073983;28;20285;-75
2021/12/19 12:00:50;;;;;;;6.60;4.70;;;12.20;1.00;;;;;;5068342;28;20209;-72
2021/12/19 12:03:29;;;;;;;5.23;4.73;;;12.20;1.00;;;;;;5057864;28;20230;-74
2021/12/19 12:06:37;;;;;;;7.03;5.23;;;12.20;1.00;;;;;;5073201;28;20739;-76
2021/12/19 12:09:07;;;;;;;6.83;4.60;;;12.20;1.00;;;;;;5073370;28;20291;-76
2021/12/19 12:11:38;;;;;;;6.03;4.43;;;12.30;1.00;;;;;;5073493;28;20683;-75
2021/12/19 12:14:23;;;;;;;5.75;4.85;;;12.30;1.00;;;;;;5071463;28;20198;-75
2021/12/19 12:16:55;;;;;;;6.23;4.73;;;12.30;1.00;;;;;;5073253;28;20242;-75
2021/12/19 12:19:38;;;;;;;5.67;5.07;;;12.30;1.00;;;;;;5067921;28;20216;-76
2021/12/19 12:22:40;;;;;;;6.37;5.27;;;12.30;1.00;;;;;;5069974;28;20210;-76
2021/12/19 12:25:19;;;;;;;7.03;4.83;;;12.40;1.00;;;;;;5070633;28;20209;-72
2021/12/19 12:27:52;;;;;;;6.53;4.90;;;12.50;1.00;;;;;;5065888;28;20210;-75
2021/12/19 12:30:23;;;;;;;8.20;5.90;;;12.60;1.00;;;;;;5066907;28;20206;-76
2021/12/19 12:32:50;;;;;;;6.67;5.37;;;12.50;1.00;;;;;;5065319;28;20218;-75
2021/12/19 12:35:19;;;;;;;5.53;4.90;;;12.40;1.00;;;;;;5061862;28;20226;-74
2021/12/19 12:37:48;;;;;;;6.07;5.00;;;12.50;1.00;;;;;;5059118;28;20237;-75
2021/12/19 12:40:26;;;;;;;6.20;4.80;;;12.60;1.00;;;;;;5058743;28;20297;-74
2021/12/19 12:43:05;;;;;;;5.33;4.60;;;12.60;1.00;;;;;;5072741;28;20206;-74
2021/12/19 12:45:52;;;;;;;7.50;5.20;;;12.70;1.00;;;;;;5066363;28;20219;-73
2021/12/19 12:48:40;;;;;;;7.17;4.83;;;12.70;1.00;;;;;;5052945;28;20560;-75
2021/12/19 12:51:10;;;;;;;7.67;5.03;;;12.60;1.00;;;;;;5064762;28;20743;-75
2021/12/19 12:53:40;;;;;;;6.10;5.50;;;12.60;1.00;;;;;;5069498;28;20206;-76
2021/12/19 12:56:11;;;;;;;4.47;4.07;;;12.70;1.00;;;;;;5071129;28;20226;-75
2021/12/19 12:58:42;;;;;;;5.90;4.70;;;12.80;1.00;;;;;;5071005;28;20223;-77
2021/12/19 13:01:28;;;;;;;6.60;4.35;;;12.70;1.00;;;;;;5073188;28;20285;-79
2021/12/19 13:04:01;;;;;;;5.30;4.13;;;12.70;1.00;;;;;;5073059;28;20685;-78
2021/12/19 13:06:47;;;;;;;7.25;5.05;;;12.70;1.00;;;;;;5058046;28;20219;-76
2021/12/19 13:09:18;;;;;;;5.75;4.65;;;12.70;1.00;;;;;;5062437;28;20312;-78
2021/12/19 13:11:48;;;;;;;4.40;4.00;;;12.80;1.00;;;;;;5057104;28;20264;-78
2021/12/19 13:14:19;;;;;;;5.07;4.53;;;12.90;1.00;;;;;;5072072;28;20214;-75
2021/12/19 13:16:49;;;;;;;6.27;4.70;;;12.90;1.00;;;;;;5065354;28;20242;-77
2021/12/19 13:19:36;;;;;;;7.90;4.77;;;12.90;1.00;;;;;;5052686;28;20207;-73
2021/12/19 13:22:04;;;;;;;6.67;3.93;;;13.00;1.00;;;;;;5059210;28;20221;-77
2021/12/19 13:24:34;;;;;;;4.43;3.50;;;13.00;1.00;;;;;;5072428;28;20203;-76
2021/12/19 13:27:12;;;;;;;6.95;5.07;;;13.00;1.00;;;;;;5072398;28;20206;-77
2021/12/19 13:29:43;;;;;;;5.63;3.90;;;13.10;1.00;;;;;;5072660;28;20294;-77
2021/12/19 13:32:21;;;;;;;4.83;4.30;;;13.10;1.00;;;;;;5073326;28;20621;-77
2021/12/19 13:34:49;;;;;;;6.83;3.67;;;13.00;1.00;;;;;;5072487;28;20198;-77
2021/12/19 13:37:17;;;;;;;8.98;4.32;;;13.00;1.00;;;;;;5072003;28;20657;-72
2021/12/19 13:39:48;;;;;;;6.10;4.32;;;13.10;1.00;;;;;;5066396;28;20252;-76
2021/12/19 13:42:16;;;;;;;4.77;4.10;;;12.90;1.00;;;;;;5067080;28;20213;-76
2021/12/19 13:44:46;;;;;;;10.52;7.00;;;13.10;1.00;;;;;;5055911;28;20685;-77
2021/12/19 13:47:15;;;;;;;12.52;8.15;;;13.00;1.00;;;;;;5072496;28;20584;-76
2021/12/19 13:49:42;;;;;;;6.65;5.55;;;13.00;1.00;;;;;;5072455;28;20240;-78
2021/12/19 13:52:09;;;;;;;3.92;3.33;;;13.10;1.00;;;;;;5061348;28;20587;-77
2021/12/19 13:54:40;;;;;;;3.92;3.13;;;13.00;1.00;;;;;;5051745;28;20207;-78
2021/12/19 13:57:21;;;;;;;3.15;2.50;;;13.00;1.00;;;;;;5051895;28;20202;-77